MSSS/SAL METAR and TAF weather

Enter ICAO airport designator
Station Type Date Time Source
MSSS METAR 2020/07/06 17:50 UTC NOAA

MSSS 061750Z 12005KT 9999 FEW033 27/21 Q1018 A3006


Station Type Date Time Source
MSSS Decoded METAR 2020/07/06 17:50 UTC NOAA

San Salvador / Ilopango, El Salvador (MSSS) 13-42N 089-07W 621M
Jul 06, 2020 - 01:50 PM EDT / 2020.07.06 1750 UTC
Wind: from the ESE (120 degrees) at 6 MPH (5 KT):0
Visibility: greater than 7 mile(s):0
Sky conditions: mostly clear
Temperature: 80 F (27 C)
Dew Point: 69 F (21 C)
Relative Humidity: 69%
Pressure (altimeter): 30.06 in. Hg (1017 hPa)
ob: MSSS 061750Z 12005KT 9999 FEW033 27/21 Q1018 A3006
cycle: 18

Station Type Date Time Source
MSSS TAF 2020/07/06 18:25 UTC NOAA

TAF MSSS 061525Z 0618/0718 17006KT 9999 SCT027 FEW037CB TX31/0620Z TN20/0712Z
FM070100 35004KT FEW023 FEW040CB SCT060 PROB40
TEMPO 0704/0708 RA
FM071200 35005KT 9999 FEW017

Example: see airport list